createdAt,value
2017-06-15T00:01:06.958Z,49.00
2017-06-15T00:03:35.027Z,49.20
2017-06-15T00:06:03.090Z,49.10
2017-06-15T00:08:31.141Z,49.30
2017-06-15T00:10:59.979Z,49.50
2017-06-15T00:13:28.041Z,49.30
2017-06-15T00:15:56.109Z,49.20
2017-06-15T00:18:24.183Z,49.20
2017-06-15T00:20:52.240Z,49.10
2017-06-15T00:23:20.291Z,49.10
2017-06-15T00:25:48.350Z,49.30
2017-06-15T00:28:17.170Z,49.60
2017-06-15T00:30:45.272Z,49.50
2017-06-15T00:33:13.312Z,49.70
2017-06-15T00:35:41.391Z,49.90
2017-06-15T00:38:09.451Z,49.90
2017-06-15T00:40:37.524Z,50.60
2017-06-15T00:43:05.596Z,50.00
2017-06-15T00:45:33.667Z,50.20
2017-06-15T00:48:01.717Z,50.40
2017-06-15T00:50:30.556Z,50.40
2017-06-15T00:52:58.697Z,50.40
2017-06-15T00:55:27.487Z,50.60
2017-06-15T00:57:55.566Z,50.50
2017-06-15T01:00:23.631Z,50.70
2017-06-15T01:02:51.696Z,50.80
2017-06-15T01:05:19.801Z,50.60
2017-06-15T01:07:47.845Z,50.70
2017-06-15T01:10:17.687Z,50.50
2017-06-15T01:12:45.766Z,50.40
2017-06-15T01:15:13.832Z,50.50
2017-06-15T01:17:41.898Z,50.70
2017-06-15T01:20:09.975Z,50.80
2017-06-15T01:22:38.039Z,50.90
2017-06-15T01:25:06.083Z,50.90
2017-06-15T01:27:34.918Z,50.80
2017-06-15T01:30:03.003Z,50.80
2017-06-15T01:32:31.072Z,50.80
2017-06-15T01:34:59.140Z,50.80
2017-06-15T01:37:27.198Z,50.70
2017-06-15T01:39:55.270Z,50.90
2017-06-15T01:42:23.332Z,50.80
2017-06-15T01:44:51.383Z,51.00
2017-06-15T01:47:19.474Z,51.20
2017-06-15T01:49:47.539Z,51.10
2017-06-15T01:52:15.621Z,51.10
2017-06-15T01:54:43.672Z,51.00
2017-06-15T01:57:12.482Z,50.80
2017-06-15T01:59:40.578Z,50.80
2017-06-15T02:02:08.634Z,50.70
2017-06-15T02:04:36.695Z,50.70
2017-06-15T02:07:04.766Z,50.70
2017-06-15T02:09:32.845Z,50.70
2017-06-15T02:12:01.671Z,51.20
2017-06-15T02:14:29.743Z,50.50
2017-06-15T02:16:57.838Z,50.60
2017-06-15T02:19:25.887Z,50.50
2017-06-15T02:21:53.960Z,50.50
2017-06-15T02:24:22.027Z,50.60
2017-06-15T02:26:50.106Z,50.60
2017-06-15T02:29:18.170Z,50.60
2017-06-15T02:31:46.245Z,50.80
2017-06-15T02:34:14.302Z,50.80
2017-06-15T02:36:42.372Z,50.90
2017-06-15T02:39:10.433Z,51.00
2017-06-15T02:41:38.478Z,50.90
2017-06-15T02:44:07.312Z,51.30
2017-06-15T02:46:35.372Z,51.30
2017-06-15T02:49:03.454Z,51.40
2017-06-15T02:51:31.515Z,51.50
2017-06-15T02:53:59.619Z,51.50
2017-06-15T02:56:27.710Z,51.40
2017-06-15T02:58:55.756Z,51.50
2017-06-15T03:01:23.829Z,51.40
2017-06-15T03:03:51.906Z,51.40
2017-06-15T03:06:20.032Z,51.40
2017-06-15T03:08:48.111Z,51.30
2017-06-15T03:11:16.180Z,51.30
2017-06-15T03:13:44.222Z,51.30
2017-06-15T03:16:12.291Z,51.30
2017-06-15T03:18:40.344Z,51.30
2017-06-15T03:21:09.185Z,51.50
2017-06-15T03:23:37.242Z,51.40
2017-06-15T03:26:05.293Z,51.60
2017-06-15T03:28:33.367Z,51.60
2017-06-15T03:31:01.419Z,51.60
2017-06-15T03:33:30.247Z,51.80
2017-06-15T03:35:58.311Z,51.70
2017-06-15T03:38:26.388Z,52.20
2017-06-15T03:40:54.463Z,51.60
2017-06-15T03:43:23.014Z,51.60
2017-06-15T03:45:51.072Z,51.70
2017-06-15T03:48:19.910Z,51.90
2017-06-15T03:50:47.975Z,51.90
2017-06-15T03:53:16.052Z,51.90
2017-06-15T03:55:44.104Z,52.00
2017-06-15T03:58:12.171Z,51.90
2017-06-15T04:00:40.236Z,51.90
2017-06-15T04:03:08.313Z,52.20
2017-06-15T04:05:37.124Z,52.10
2017-06-15T04:08:05.182Z,52.00
2017-06-15T04:10:33.238Z,51.90
2017-06-15T04:13:02.070Z,51.80
2017-06-15T04:15:30.139Z,51.80
2017-06-15T04:17:58.199Z,51.80
2017-06-15T04:20:26.329Z,51.70
2017-06-15T04:22:54.390Z,51.60
2017-06-15T04:25:22.442Z,51.70
2017-06-15T04:27:50.507Z,51.40
2017-06-15T04:30:18.574Z,51.40
2017-06-15T04:32:46.646Z,51.50
2017-06-15T04:35:14.706Z,51.50
2017-06-15T04:37:42.771Z,51.60
2017-06-15T04:40:10.853Z,51.60
2017-06-15T04:42:38.906Z,51.50
2017-06-15T04:45:06.970Z,51.30
2017-06-15T04:47:35.028Z,51.30
2017-06-15T04:50:03.853Z,50.70
2017-06-15T04:52:31.909Z,50.60
2017-06-15T04:54:59.981Z,50.60
2017-06-15T04:57:28.041Z,50.50
2017-06-15T04:59:57.843Z,50.50
2017-06-15T05:02:26.655Z,50.40
2017-06-15T05:04:54.724Z,50.20
2017-06-15T05:07:22.815Z,50.00
2017-06-15T05:09:50.884Z,50.10
2017-06-15T05:12:18.963Z,50.20
2017-06-15T05:14:47.039Z,50.20
2017-06-15T05:17:15.082Z,50.00
2017-06-15T05:19:43.140Z,50.20
2017-06-15T05:22:11.217Z,50.40
2017-06-15T05:24:39.271Z,50.40
2017-06-15T05:27:07.370Z,50.60
2017-06-15T05:29:35.414Z,51.00
2017-06-15T05:32:03.482Z,51.20
2017-06-15T05:34:31.555Z,51.10
2017-06-15T05:36:59.640Z,50.90
2017-06-15T05:39:27.699Z,50.90
2017-06-15T05:41:55.742Z,50.90
2017-06-15T05:44:24.584Z,50.80
2017-06-15T05:46:52.674Z,50.80
2017-06-15T05:49:20.725Z,51.20
2017-06-15T05:51:48.776Z,50.80
2017-06-15T05:54:16.841Z,50.90
2017-06-15T05:56:44.910Z,50.90
2017-06-15T05:59:12.987Z,51.20
2017-06-15T06:01:41.094Z,50.80
2017-06-15T06:04:09.147Z,50.50
2017-06-15T06:06:37.227Z,51.10
2017-06-15T06:09:05.278Z,51.30
2017-06-15T06:11:33.340Z,51.20
2017-06-15T06:14:01.458Z,50.90
2017-06-15T06:16:30.310Z,50.80
2017-06-15T06:18:58.383Z,50.80
2017-06-15T06:21:26.443Z,50.70
2017-06-15T06:23:55.067Z,50.30
2017-06-15T06:26:23.204Z,50.60
2017-06-15T06:28:51.272Z,51.20
2017-06-15T06:31:19.363Z,50.80
2017-06-15T06:33:47.429Z,50.70
2017-06-15T06:36:15.479Z,50.70
2017-06-15T06:38:43.590Z,51.60
2017-06-15T06:41:12.158Z,51.50
2017-06-15T06:43:40.276Z,51.30
2017-06-15T06:46:09.184Z,50.50
2017-06-15T06:48:37.983Z,51.40
2017-06-15T06:51:06.611Z,51.40
2017-06-15T06:53:34.708Z,51.50
2017-06-15T06:56:03.655Z,51.70
2017-06-15T06:58:31.730Z,52.00
2017-06-15T07:00:59.819Z,52.00
2017-06-15T07:03:27.878Z,51.90
2017-06-15T07:05:55.957Z,52.40
2017-06-15T07:08:24.043Z,52.50
2017-06-15T07:10:52.123Z,52.60
2017-06-15T07:13:20.168Z,53.10
2017-06-15T07:15:48.288Z,52.40
2017-06-15T07:18:16.363Z,52.10
2017-06-15T07:20:45.238Z,51.90
2017-06-15T07:23:13.307Z,51.80
2017-06-15T07:25:41.687Z,50.90
2017-06-15T07:28:09.754Z,51.50
2017-06-15T07:30:37.828Z,50.00
2017-06-15T07:33:05.867Z,50.10
2017-06-15T07:35:33.960Z,47.60
2017-06-15T07:38:02.042Z,48.40
2017-06-15T07:40:30.111Z,47.30
2017-06-15T07:42:58.187Z,48.50
2017-06-15T07:45:27.019Z,46.80
2017-06-15T07:47:55.113Z,46.10
2017-06-15T07:50:23.188Z,46.60
2017-06-15T07:52:51.288Z,46.70
2017-06-15T07:55:19.375Z,46.70
2017-06-15T07:57:47.475Z,46.40
2017-06-15T08:00:15.525Z,46.50
2017-06-15T08:02:43.601Z,46.20
2017-06-15T08:05:12.449Z,44.20
2017-06-15T08:07:40.519Z,44.20
2017-06-15T08:10:08.594Z,43.90
2017-06-15T08:12:36.665Z,44.30
2017-06-15T08:15:04.737Z,42.70
2017-06-15T08:17:32.791Z,41.80
2017-06-15T08:20:00.851Z,41.30
2017-06-15T08:22:28.921Z,40.40
2017-06-15T08:24:57.646Z,40.90
2017-06-15T08:27:25.743Z,40.40
2017-06-15T08:29:55.271Z,40.50
2017-06-15T08:32:23.338Z,40.50
2017-06-15T08:34:51.427Z,40.90
2017-06-15T08:37:19.522Z,40.00
2017-06-15T08:39:47.608Z,40.40
2017-06-15T08:42:15.655Z,40.70
2017-06-15T08:45:04.737Z,39.70
2017-06-15T08:47:32.810Z,40.40
2017-06-15T08:50:00.868Z,38.20
2017-06-15T08:52:28.951Z,37.50
2017-06-15T08:54:57.015Z,37.30
2017-06-15T08:57:25.114Z,38.30
2017-06-15T08:59:54.008Z,39.20
2017-06-15T09:02:22.023Z,39.10
2017-06-15T09:04:50.092Z,37.90
2017-06-15T09:07:18.175Z,38.70
2017-06-15T09:09:46.267Z,38.00
2017-06-15T09:12:14.332Z,37.50
2017-06-15T09:14:42.420Z,37.20
2017-06-15T09:17:10.487Z,37.60
2017-06-15T09:19:38.558Z,36.20
2017-06-15T09:22:06.652Z,33.50
2017-06-15T09:24:34.739Z,31.00
2017-06-15T09:27:02.817Z,29.60
2017-06-15T09:29:30.911Z,28.30
2017-06-15T09:31:59.738Z,26.10
2017-06-15T09:34:27.837Z,25.40
2017-06-15T09:36:55.894Z,24.50
2017-06-15T09:39:23.950Z,24.10
2017-06-15T09:41:52.041Z,24.00
2017-06-15T09:44:20.107Z,22.90
2017-06-15T09:46:48.187Z,22.20
2017-06-15T09:49:16.244Z,21.30
2017-06-15T09:51:44.347Z,21.40
2017-06-15T09:54:13.022Z,20.20
2017-06-15T09:56:41.070Z,20.60
2017-06-15T09:59:09.882Z,20.30
2017-06-15T10:01:37.944Z,20.00
2017-06-15T10:04:05.999Z,20.20
2017-06-15T10:06:34.095Z,20.50
2017-06-15T10:09:02.159Z,20.50
2017-06-15T10:11:30.240Z,22.20
2017-06-15T10:13:59.144Z,22.40
2017-06-15T10:16:27.215Z,22.70
2017-06-15T10:18:55.262Z,23.20
2017-06-15T10:21:23.323Z,23.60
2017-06-15T10:23:51.410Z,23.00
2017-06-15T10:26:19.472Z,22.70
2017-06-15T10:28:47.614Z,21.50
2017-06-15T10:31:15.649Z,21.00
2017-06-15T10:33:43.687Z,22.00
2017-06-15T10:36:11.762Z,23.50
2017-06-15T10:38:39.836Z,24.20
2017-06-15T10:41:07.887Z,26.00
2017-06-15T10:43:35.995Z,26.30
2017-06-15T10:46:04.052Z,26.70
2017-06-15T10:48:32.138Z,26.80
2017-06-15T10:51:00.199Z,25.30
2017-06-15T10:53:28.254Z,25.70
2017-06-15T10:55:56.339Z,25.60
2017-06-15T10:58:24.395Z,26.20
2017-06-15T11:00:52.483Z,26.90
2017-06-15T11:03:20.542Z,27.80
2017-06-15T11:05:48.600Z,28.70
2017-06-15T11:08:16.683Z,28.90
2017-06-15T11:10:44.742Z,28.00
2017-06-15T11:13:12.810Z,26.50
2017-06-15T11:15:40.893Z,26.40
2017-06-15T11:18:08.976Z,26.80
2017-06-15T11:20:37.839Z,28.00
2017-06-15T11:23:05.875Z,28.00
2017-06-15T11:25:33.938Z,28.50
2017-06-15T11:28:02.018Z,28.20
2017-06-15T11:30:30.097Z,26.20
2017-06-15T11:32:58.562Z,23.60
2017-06-15T11:35:26.647Z,22.10
2017-06-15T11:37:54.706Z,20.50
2017-06-15T11:40:22.803Z,20.40
2017-06-15T11:42:50.859Z,20.90
2017-06-15T11:45:18.935Z,21.10
2017-06-15T11:47:47.871Z,21.30
2017-06-15T11:50:15.930Z,21.20
2017-06-15T11:52:43.978Z,21.60
2017-06-15T11:55:12.082Z,23.20
2017-06-15T11:57:40.149Z,24.30
2017-06-15T12:00:08.245Z,25.70
2017-06-15T12:02:36.287Z,27.20
2017-06-15T12:05:04.356Z,28.50
2017-06-15T12:07:32.420Z,29.90
2017-06-15T12:10:00.486Z,30.50
2017-06-15T12:12:28.551Z,31.20
2017-06-15T12:14:56.642Z,30.40
2017-06-15T12:17:25.479Z,32.40
2017-06-15T12:19:53.622Z,31.70
2017-06-15T12:22:21.671Z,31.70
2017-06-15T12:24:50.510Z,32.60
2017-06-15T12:27:18.585Z,32.00
2017-06-15T12:29:46.651Z,32.50
2017-06-15T12:32:14.711Z,32.30
2017-06-15T12:34:42.788Z,32.90
2017-06-15T12:37:10.860Z,32.70
2017-06-15T12:39:38.934Z,32.10
2017-06-15T12:42:07.014Z,31.60
2017-06-15T12:44:35.071Z,32.10
2017-06-15T12:47:03.134Z,32.50
2017-06-15T12:49:31.227Z,33.00
2017-06-15T12:51:59.308Z,33.20
2017-06-15T12:54:27.355Z,32.80
2017-06-15T12:56:55.422Z,33.10
2017-06-15T12:59:23.498Z,33.90
2017-06-15T13:01:51.568Z,32.60
2017-06-15T13:04:19.628Z,32.20
2017-06-15T13:06:47.697Z,33.30
2017-06-15T13:09:15.791Z,32.90
2017-06-15T13:11:43.862Z,32.20
2017-06-15T13:14:11.934Z,33.30
2017-06-15T13:16:40.018Z,33.10
2017-06-15T13:19:08.087Z,33.30
2017-06-15T13:21:36.143Z,32.30
2017-06-15T13:24:04.210Z,32.60
2017-06-15T13:26:32.303Z,32.50
2017-06-15T13:29:00.386Z,32.80
2017-06-15T13:31:28.447Z,32.00
2017-06-15T13:33:56.514Z,31.60
2017-06-15T13:36:24.595Z,31.60
2017-06-15T13:38:52.648Z,32.00
2017-06-15T13:41:20.715Z,32.00
2017-06-15T13:43:48.776Z,33.50
2017-06-15T13:46:16.851Z,33.30
2017-06-15T13:48:44.930Z,34.00
2017-06-15T13:51:12.983Z,33.30
2017-06-15T13:53:41.052Z,33.80
2017-06-15T13:56:09.165Z,34.30
2017-06-15T13:58:37.245Z,34.10
2017-06-15T14:01:06.071Z,32.70
2017-06-15T14:03:34.239Z,32.60
2017-06-15T14:06:03.039Z,33.60
2017-06-15T14:08:31.122Z,32.90
2017-06-15T14:10:59.183Z,32.80
2017-06-15T14:13:27.257Z,33.70
2017-06-15T14:15:55.346Z,33.30
2017-06-15T14:18:23.410Z,34.40
2017-06-15T14:20:52.259Z,35.20
2017-06-15T14:23:20.311Z,35.10
2017-06-15T14:25:48.383Z,35.00
2017-06-15T14:28:16.446Z,35.60
2017-06-15T14:30:44.510Z,35.60
2017-06-15T14:33:12.582Z,36.00
2017-06-15T14:35:40.650Z,36.10
2017-06-15T14:38:08.739Z,36.00
2017-06-15T14:40:36.803Z,35.80
2017-06-15T14:43:04.907Z,36.00
2017-06-15T14:45:32.987Z,35.90
2017-06-15T14:48:01.052Z,36.50
2017-06-15T14:50:29.136Z,36.20
2017-06-15T14:52:57.189Z,36.60
2017-06-15T14:55:25.281Z,36.30
2017-06-15T14:57:53.316Z,36.50
2017-06-15T15:00:21.395Z,36.90
2017-06-15T15:02:49.455Z,36.40
2017-06-15T15:05:17.519Z,36.70
2017-06-15T15:07:45.585Z,37.00
2017-06-15T15:10:13.691Z,37.00
2017-06-15T15:12:41.792Z,37.00
2017-06-15T15:15:09.831Z,36.80
2017-06-15T15:17:37.912Z,37.20
2017-06-15T15:20:05.999Z,37.00
2017-06-15T15:22:34.848Z,38.50
2017-06-15T15:25:02.912Z,38.40
2017-06-15T15:27:30.983Z,39.70
2017-06-15T15:29:59.047Z,41.20
2017-06-15T15:32:27.097Z,46.40
2017-06-15T15:34:55.211Z,49.50
2017-06-15T15:37:23.350Z,53.80
2017-06-15T15:39:51.415Z,58.20
2017-06-15T15:42:19.491Z,62.70
2017-06-15T15:44:47.588Z,66.50
2017-06-15T15:47:15.669Z,68.10
2017-06-15T15:49:44.796Z,69.80
2017-06-15T15:52:13.621Z,73.80
2017-06-15T15:54:41.687Z,73.70
2017-06-15T15:57:09.772Z,70.90
2017-06-15T15:59:37.836Z,72.40
2017-06-15T16:02:05.915Z,75.20
2017-06-15T16:04:34.003Z,76.20
2017-06-15T16:07:02.077Z,76.40
2017-06-15T16:09:30.167Z,78.70
2017-06-15T16:11:58.250Z,77.20
2017-06-15T16:14:27.118Z,78.50
2017-06-15T16:16:55.195Z,78.00
2017-06-15T16:19:24.045Z,79.80
2017-06-15T16:21:52.189Z,79.80
2017-06-15T16:24:20.239Z,81.40
2017-06-15T16:26:49.087Z,79.50
2017-06-15T16:29:17.155Z,79.40
2017-06-15T16:31:45.227Z,80.50
2017-06-15T16:34:13.299Z,80.50
2017-06-15T16:36:41.366Z,80.00
2017-06-15T16:39:09.439Z,81.80
2017-06-15T16:41:37.512Z,80.30
2017-06-15T16:44:05.602Z,82.50
2017-06-15T16:46:34.452Z,86.60
2017-06-15T16:49:02.586Z,86.40
2017-06-15T16:51:30.792Z,86.60
2017-06-15T16:53:58.854Z,87.70
2017-06-15T16:56:27.401Z,89.50
2017-06-15T16:58:56.264Z,89.30
2017-06-15T17:01:24.333Z,89.20
2017-06-15T17:03:52.388Z,90.30
2017-06-15T17:06:20.508Z,89.40
2017-06-15T17:08:48.574Z,88.50
2017-06-15T17:11:17.435Z,90.00
2017-06-15T17:13:45.507Z,89.80
2017-06-15T17:16:13.586Z,89.90
2017-06-15T17:18:43.191Z,88.30
2017-06-15T17:21:11.235Z,87.60
2017-06-15T17:23:39.307Z,85.80
2017-06-15T17:26:07.403Z,84.40
2017-06-15T17:28:35.516Z,86.40
2017-06-15T17:31:04.335Z,86.20
2017-06-15T17:33:32.414Z,85.40
2017-06-15T17:36:00.487Z,85.50
2017-06-15T17:38:28.569Z,84.00
2017-06-15T17:40:56.646Z,84.40
2017-06-15T17:43:24.731Z,83.10
2017-06-15T17:45:53.570Z,82.80
2017-06-15T17:48:21.662Z,82.70
2017-06-15T17:50:49.733Z,82.80
2017-06-15T17:53:17.822Z,83.20
2017-06-15T17:55:45.899Z,82.40
2017-06-15T17:58:13.967Z,83.00
2017-06-15T18:00:42.941Z,80.80
2017-06-15T18:03:11.022Z,82.20
2017-06-15T18:05:39.103Z,81.00
2017-06-15T18:08:07.172Z,82.10
2017-06-15T18:10:35.254Z,82.20
2017-06-15T18:13:03.326Z,82.00
2017-06-15T18:15:32.170Z,82.00
2017-06-15T18:18:00.263Z,81.80
2017-06-15T18:20:28.343Z,82.20
2017-06-15T18:22:57.175Z,80.80
2017-06-15T18:25:25.271Z,79.80
2017-06-15T18:27:53.355Z,78.50
2017-06-15T18:30:21.422Z,79.10
2017-06-15T18:32:49.517Z,77.30
2017-06-15T18:35:18.349Z,78.70
2017-06-15T18:37:46.456Z,78.60
2017-06-15T18:40:14.528Z,77.90
2017-06-15T18:42:42.599Z,78.30
2017-06-15T18:45:10.682Z,78.80
2017-06-15T18:47:39.575Z,78.90
2017-06-15T18:50:07.642Z,78.70
2017-06-15T18:52:35.719Z,79.00
2017-06-15T18:55:04.570Z,78.30
2017-06-15T18:57:32.658Z,78.20
2017-06-15T19:00:00.727Z,79.30
2017-06-15T19:02:28.824Z,78.80
2017-06-15T19:04:56.944Z,78.90
2017-06-15T19:07:25.003Z,79.10
2017-06-15T19:09:53.078Z,78.80
2017-06-15T19:12:21.174Z,79.10
2017-06-15T19:14:49.258Z,78.20
2017-06-15T19:17:17.332Z,79.00
2017-06-15T19:19:45.423Z,78.70
2017-06-15T19:22:14.279Z,78.00
2017-06-15T19:24:42.387Z,77.90
2017-06-15T19:27:11.219Z,78.80
2017-06-15T19:29:39.287Z,78.10
2017-06-15T19:32:07.414Z,78.40
2017-06-15T19:34:35.448Z,77.60
2017-06-15T19:37:03.531Z,76.80
2017-06-15T19:39:31.594Z,77.50
2017-06-15T19:42:00.387Z,77.40
2017-06-15T19:44:28.479Z,77.70
2017-06-15T19:46:57.327Z,77.30
2017-06-15T19:49:25.420Z,77.30
2017-06-15T19:51:53.527Z,78.10
2017-06-15T19:54:22.348Z,78.10
2017-06-15T19:56:50.463Z,78.10
2017-06-15T19:59:18.532Z,77.70
2017-06-15T20:01:46.604Z,77.50
2017-06-15T20:04:14.863Z,78.00
2017-06-15T20:06:42.929Z,77.50
2017-06-15T20:09:11.000Z,77.40
2017-06-15T20:11:39.432Z,77.80
2017-06-15T20:14:07.487Z,77.60
2017-06-15T20:16:35.570Z,78.50
2017-06-15T20:19:04.431Z,78.30
2017-06-15T20:21:32.524Z,77.20
2017-06-15T20:24:00.595Z,77.30
2017-06-15T20:26:28.675Z,77.50
2017-06-15T20:28:57.544Z,77.30
2017-06-15T20:31:25.621Z,77.10
2017-06-15T20:33:53.743Z,76.90
2017-06-15T20:36:21.822Z,76.70
2017-06-15T20:38:49.904Z,76.10
2017-06-15T20:41:18.012Z,76.30
2017-06-15T20:43:46.072Z,76.90
2017-06-15T20:46:14.521Z,76.60
2017-06-15T20:48:42.590Z,76.50
2017-06-15T20:51:10.675Z,76.50
2017-06-15T20:53:38.767Z,76.30
2017-06-15T20:56:06.843Z,75.70
2017-06-15T20:58:34.926Z,75.80
2017-06-15T21:01:03.010Z,75.10
2017-06-15T21:03:31.879Z,74.80
2017-06-15T21:06:00.001Z,74.80
2017-06-15T21:08:28.122Z,76.40
2017-06-15T21:10:56.188Z,75.00
2017-06-15T21:13:24.264Z,73.80
2017-06-15T21:15:52.348Z,75.10
2017-06-15T21:18:21.191Z,75.30
2017-06-15T21:20:49.262Z,75.20
2017-06-15T21:23:17.345Z,74.60
2017-06-15T21:25:45.419Z,74.60
2017-06-15T21:28:13.514Z,74.50
2017-06-15T21:30:41.612Z,73.20
2017-06-15T21:33:09.691Z,74.30
2017-06-15T21:35:37.764Z,72.50
2017-06-15T21:38:05.856Z,70.40
2017-06-15T21:40:33.916Z,71.10
2017-06-15T21:43:02.024Z,70.70
2017-06-15T21:45:30.096Z,68.90
2017-06-15T21:47:58.927Z,70.10
2017-06-15T21:50:26.994Z,69.00
2017-06-15T21:52:55.083Z,67.20
2017-06-15T21:55:23.156Z,67.00
2017-06-15T21:57:51.238Z,69.60
2017-06-15T22:00:19.302Z,69.60
2017-06-15T22:02:47.364Z,68.00
2017-06-15T22:05:15.438Z,64.50
2017-06-15T22:07:43.489Z,67.20
2017-06-15T22:10:11.571Z,67.50
2017-06-15T22:12:39.635Z,65.00
2017-06-15T22:15:07.716Z,61.60
2017-06-15T22:17:35.778Z,63.10
2017-06-15T22:20:04.615Z,62.90
2017-06-15T22:22:32.700Z,62.60
2017-06-15T22:25:00.743Z,62.20
2017-06-15T22:27:29.611Z,61.40
2017-06-15T22:29:57.672Z,61.20
2017-06-15T22:32:25.754Z,62.30
2017-06-15T22:34:53.795Z,63.40
2017-06-15T22:37:21.864Z,63.20
2017-06-15T22:39:49.941Z,61.50
2017-06-15T22:42:18.003Z,63.90
2017-06-15T22:44:46.098Z,63.40
2017-06-15T22:47:14.171Z,62.40
2017-06-15T22:49:42.215Z,62.80
2017-06-15T22:52:10.287Z,58.80
2017-06-15T22:54:38.491Z,61.60
2017-06-15T22:57:06.537Z,62.50
2017-06-15T22:59:34.622Z,62.60
2017-06-15T23:02:02.679Z,62.60
2017-06-15T23:04:30.741Z,62.30
2017-06-15T23:06:58.801Z,62.30
2017-06-15T23:09:26.875Z,61.40
2017-06-15T23:11:54.947Z,59.70
2017-06-15T23:14:23.730Z,61.20
2017-06-15T23:16:51.789Z,62.70
2017-06-15T23:19:19.855Z,62.10
2017-06-15T23:21:47.917Z,62.80
2017-06-15T23:24:16.734Z,59.40
2017-06-15T23:26:44.808Z,59.40
2017-06-15T23:29:12.887Z,62.20
2017-06-15T23:31:40.947Z,64.20
2017-06-15T23:34:09.024Z,63.60
2017-06-15T23:36:37.074Z,60.80
2017-06-15T23:39:05.908Z,60.60
2017-06-15T23:41:33.964Z,60.40
2017-06-15T23:44:02.035Z,60.70
2017-06-15T23:46:30.097Z,60.70
2017-06-15T23:48:58.143Z,60.50
2017-06-15T23:51:26.214Z,59.50
2017-06-15T23:53:55.023Z,60.20
2017-06-15T23:56:23.091Z,60.10
2017-06-15T23:58:51.163Z,60.70
